Deming, NM

3:06 AM MDT on October 25, 2014 (GMT -0600)
Deming Municipal | Change Station
CLOSE
Current Station
Airport
Location: Deming,
Elevation: 4311 ft
Nearby Weather Stations

Elev 4311 ft 32.26 °N, 107.72 °W | Updated 13 minutes ago

Clear
Clear
52 °F
Feels Like 52 °F
N
6
Wind Variable Wind from NW

Today
High -- | Low -- °F
--% Chance of Precip.
Yesterday
High -- | Low -- °F
Precip. -- in
7:22 AM 6:27 PM
New Moon, 2% visible
Pressure 30.06 in
Visibility 10.0 miles
Clouds Clear
Dew Point 44 °F
Humidity 74%
Rainfall 0.00 in
Snow Depth Not available.
UV 0 out of 12
Pollen 4.80 out of 12
Air Quality Not available.
Flu Activity Sporadic
METAR KDMN 250853Z AUTO 31005KT 10SM CLR 11/07 A3023 RMK AO2 SLP180 T01110067 58002

More Conditions Fewer Conditions

Pressure 30.06 in
Visibility 10.0 miles
Clouds Clear
Dew Point 44 °F
Humidity 74%
Rainfall 0.00 in
Snow Depth Not available.
UV 0 out of 12
Pollen 4.80 out of 12
Air Quality Not available.
Flu Activity Sporadic
METAR KDMN 250853Z AUTO 31005KT 10SM CLR 11/07 A3023 RMK AO2 SLP180 T01110067 58002

More Conditions Fewer Conditions

10-Day Weather Forecast

Almanac

Astronomy

Oct. 25, 2014 Rise Set
Actual Time 7:22 AM MDT 6:27 PM MDT
Civil Twilight 6:57 AM MDT 6:52 PM MDT
Nautical Twilight 6:28 AM MDT 7:21 PM MDT
Astronomical Twilight 6:00 AM MDT 7:49 PM MDT
Moon 8:59 AM MDT 7:57 PM MDT
Length of Visible Light 11h 55m
Length of Day
11h 04m
Tomorrow will be 1m 47s shorter.
New Moon, 2% of the Moon is Illuminated
Today
New Moon
Oct 30
First Quarter
Nov 6
Full
Nov 14
Last Quarter
Nov 22
New

Today's Extremes

State Highs State Lows

Community

WunderPhotos

Upload Photos

1,764,796 photos uploaded!

Nearby

Snow Depth

Station Depth Elevation
Silver Creek Divide 1 in 9000 ft
Frisco Divide 1 in 8000 ft
Sierra Blanca 0 in 10280 ft
Rice Park 0 in 8460 ft
Senorita Divide #2 0 in 8600 ft

Earthquake Activity

City Distance Mag. Time & Date
No recent earthquake activity has been reported nearby.
Minimum magnitude displayed is 2.5.

Coastal Water Temperatures

Place Temperature
No Stations Reporting

Nearby Weather Stations